Time;durP1;ratioP1;P1;durP2;ratioP2;P2;SDS_P1;SDS_P2;PMS_P1;PMS_P2;Temp;Humidity;BMP_temperature;BMP_pressure;BME280_temperature;BME280_humidity;BME280_pressure;Samples;Min_cycle;Max_cycle;Signal;HPM_P1;HPM_P2
2022/04/22 00:02:23;;;;;;;12.95;7.93;;;;;;;10.85;61.50;100837.13;5017470;28;20147;-58
2022/04/22 00:04:49;;;;;;;12.90;7.90;;;;;;;10.86;61.60;100833.47;5019927;28;20029;-58
2022/04/22 00:07:14;;;;;;;16.10;7.95;;;;;;;10.81;61.06;100830.47;5011188;28;20029;-58
2022/04/22 00:09:39;;;;;;;12.75;8.00;;;;;;;10.74;62.11;100829.47;5015934;28;20029;-58
2022/04/22 00:12:05;;;;;;;13.90;8.20;;;;;;;10.70;61.57;100825.50;5020119;28;20053;-58
2022/04/22 00:14:31;;;;;;;10.77;8.00;;;;;;;10.69;62.07;100832.63;5013989;28;20041;-59
2022/04/22 00:16:56;;;;;;;13.30;8.07;;;;;;;10.70;61.87;100814.88;5023543;28;20042;-57
2022/04/22 00:19:21;;;;;;;13.70;8.45;;;;;;;10.63;62.75;100828.81;5021768;28;80355;-58
2022/04/22 00:21:47;;;;;;;11.82;8.10;;;;;;;10.63;62.79;100823.50;5028585;28;20046;-58
2022/04/22 00:24:15;;;;;;;14.80;8.43;;;;;;;10.59;62.71;100816.84;5015710;28;20029;-58
2022/04/22 00:26:41;;;;;;;12.93;8.50;;;;;;;10.58;63.20;100825.81;5015115;28;20037;-58
2022/04/22 00:29:07;;;;;;;14.70;8.80;;;;;;;10.53;63.10;100822.81;5013024;28;20029;-58
2022/04/22 00:31:32;;;;;;;13.85;9.05;;;;;;;10.49;62.96;100826.75;5015028;28;20053;-58
2022/04/22 00:33:57;;;;;;;12.75;8.98;;;;;;;10.49;63.57;100821.44;5014323;28;20115;-58
2022/04/22 00:36:23;;;;;;;13.35;8.85;;;;;;;10.50;63.59;100828.41;5017462;28;20034;-58
2022/04/22 00:38:48;;;;;;;12.98;8.85;;;;;;;10.42;63.64;100815.09;5012514;28;20026;-58
2022/04/22 00:41:14;;;;;;;13.18;8.77;;;;;;;10.42;63.58;100809.81;5013524;28;20080;-58
2022/04/22 00:43:44;;;;;;;14.60;8.73;;;;;;;10.30;64.12;100802.16;5011819;28;20033;-58
2022/04/22 00:46:11;;;;;;;14.35;8.75;;;;;;;10.31;64.06;100814.41;5009285;28;20030;-58
2022/04/22 00:48:36;;;;;;;14.05;9.13;;;;;;;10.30;64.27;100807.44;5011543;28;20049;-58
2022/04/22 00:51:06;;;;;;;13.05;8.77;;;;;;;10.26;64.65;100798.16;5013307;28;20037;-58
2022/04/22 00:53:35;;;;;;;14.93;9.20;;;;;;;10.28;64.37;100808.59;5021754;28;20436;-57
2022/04/22 00:56:02;;;;;;;15.55;8.93;;;;;;;10.23;65.50;100801.13;5012891;28;20030;-58
2022/04/22 00:58:27;;;;;;;15.32;9.45;;;;;;;10.19;65.43;100805.09;5017363;28;20655;-58
2022/04/22 01:00:53;;;;;;;15.88;9.55;;;;;;;10.11;65.20;100792.63;5012470;28;20033;-58
2022/04/22 01:03:18;;;;;;;13.52;9.40;;;;;;;10.08;65.45;100788.47;5024122;28;20044;-58
2022/04/22 01:11:13;;;;;;;13.90;9.05;;;;;;;10.02;65.82;100789.13;5012059;28;20156;-58
2022/04/22 01:13:38;;;;;;;12.75;8.95;;;;;;;10.00;66.58;100780.50;5011955;28;20033;-58
2022/04/22 01:16:03;;;;;;;15.93;9.20;;;;;;;9.98;66.27;100779.84;5022394;28;20487;-57
2022/04/22 01:18:29;;;;;;;15.02;8.98;;;;;;;9.92;66.38;100785.78;5012003;28;20380;-57
2022/04/22 01:21:00;;;;;;;14.38;9.63;;;;;;;9.91;67.03;100787.59;5022732;28;20058;-58
2022/04/22 01:23:25;;;;;;;14.40;9.52;;;;;;;9.88;67.62;100781.78;5019491;28;20033;-57
2022/04/22 01:25:52;;;;;;;14.95;9.57;;;;;;;9.92;67.21;100783.13;5015375;28;20488;-58
2022/04/22 01:28:18;;;;;;;14.25;9.75;;;;;;;9.87;67.45;100775.63;5008473;28;20033;-58
2022/04/22 01:30:44;;;;;;;17.05;9.27;;;;;;;9.82;67.49;100780.59;5013393;28;20026;-58
2022/04/22 01:33:09;;;;;;;16.45;10.02;;;;;;;9.80;67.68;100770.16;5022268;28;20028;-57
2022/04/22 01:35:34;;;;;;;14.45;9.68;;;;;;;9.80;67.68;100767.50;5011065;28;21730;-58
2022/04/22 01:37:59;;;;;;;16.63;10.10;;;;;;;9.77;68.24;100775.75;5014361;28;20034;-57
2022/04/22 01:40:25;;;;;;;16.02;10.05;;;;;;;9.78;67.82;100777.41;5019229;28;20030;-58
2022/04/22 01:42:50;;;;;;;15.88;10.05;;;;;;;9.79;68.23;100768.50;5010233;28;20040;-57
2022/04/22 01:45:15;;;;;;;16.75;9.95;;;;;;;9.78;68.72;100766.81;5006928;28;20029;-58
2022/04/22 01:47:41;;;;;;;17.50;10.57;;;;;;;9.77;68.54;100762.50;5018645;28;20033;-58
2022/04/22 01:50:07;;;;;;;16.02;10.05;;;;;;;9.79;68.47;100768.50;5014891;28;20503;-58
2022/04/22 01:52:33;;;;;;;17.83;10.68;;;;;;;9.79;68.75;100776.44;5013617;28;20584;-58
2022/04/22 01:55:00;;;;;;;15.25;10.35;;;;;;;9.71;69.40;100775.56;5016623;28;20044;-57
2022/04/22 01:57:25;;;;;;;17.60;10.75;;;;;;;9.74;69.08;100773.44;5010739;28;20034;-57
2022/04/22 01:59:50;;;;;;;15.07;10.27;;;;;;;9.74;68.71;100770.78;5010124;28;20044;-58
2022/04/22 02:02:18;;;;;;;17.23;11.35;;;;;;;9.73;68.71;100774.44;5010274;28;20064;-58
2022/04/22 02:04:43;;;;;;;17.00;11.43;;;;;;;9.72;69.21;100772.75;5009257;28;20036;-58
2022/04/22 02:07:09;;;;;;;16.52;10.88;;;;;;;9.72;68.99;100774.59;5011231;28;20030;-58
2022/04/22 02:09:35;;;;;;;15.80;11.20;;;;;;;9.72;69.01;100772.75;5009689;28;20100;-58
2022/04/22 02:12:00;;;;;;;16.77;10.82;;;;;;;9.71;69.64;100778.22;5017231;28;20036;-57
2022/04/22 02:14:26;;;;;;;15.63;10.68;;;;;;;9.68;69.21;100772.22;5009889;28;20018;-58
2022/04/22 02:16:52;;;;;;;16.05;10.88;;;;;;;9.67;69.62;100769.75;5009475;28;20061;-58
2022/04/22 02:19:18;;;;;;;16.27;11.07;;;;;;;9.64;69.30;100770.06;5007444;28;20053;-58
2022/04/22 02:21:43;;;;;;;17.63;11.30;;;;;;;9.62;69.49;100772.88;5014423;28;20037;-58
2022/04/22 02:24:09;;;;;;;16.25;10.85;;;;;;;9.53;70.37;100764.03;5009416;28;20116;-58
2022/04/22 02:28:31;;;;;;;17.58;11.48;;;;;;;9.59;69.73;100767.06;5018531;28;20041;-58
2022/04/22 02:29:20;;;;;;;16.50;11.35;;;;;;;9.47;70.04;100763.84;5011970;28;20038;-58
2022/04/22 02:31:46;;;;;;;18.98;11.32;;;;;;;9.48;70.29;100766.31;5011074;28;20036;-58
2022/04/22 02:34:11;;;;;;;15.63;11.43;;;;;;;9.44;70.84;100766.78;5012365;28;20066;-58
2022/04/22 02:36:36;;;;;;;18.02;11.25;;;;;;;9.47;70.43;100764.66;5017667;28;20041;-58
2022/04/22 02:39:02;;;;;;;16.67;11.25;;;;;;;9.51;70.98;100766.03;5013134;28;20367;-58
2022/04/22 02:46:55;;;;;;;17.30;11.02;;;;;;;9.46;71.15;100757.72;5018564;28;20087;-58
2022/04/22 02:49:20;;;;;;;16.75;11.77;;;;;;;9.38;71.06;100750.56;5012946;28;20029;-58
2022/04/22 02:51:46;;;;;;;19.58;12.38;;;;;;;9.35;71.20;100750.03;5010705;28;20041;-58
2022/04/22 02:54:11;;;;;;;17.92;11.45;;;;;;;9.32;71.38;100750.38;5011566;28;20034;-58
2022/04/22 02:56:37;;;;;;;16.90;11.70;;;;;;;9.29;71.31;100746.22;5016844;28;20072;-57
2022/04/22 02:59:02;;;;;;;17.90;11.82;;;;;;;9.22;71.87;100745.97;5011378;28;20038;-57
2022/04/22 03:01:28;;;;;;;18.80;11.90;;;;;;;9.20;71.89;100747.97;5020352;28;20442;-58
2022/04/22 03:03:53;;;;;;;18.33;12.02;;;;;;;9.23;71.83;100747.63;5012081;28;20034;-58
2022/04/22 03:06:19;;;;;;;19.65;11.95;;;;;;;9.21;72.04;100744.34;5019553;28;20026;-58
2022/04/22 03:08:45;;;;;;;18.25;11.75;;;;;;;9.14;72.16;100745.94;5023766;28;20030;-58
2022/04/22 03:11:10;;;;;;;17.40;12.38;;;;;;;9.14;72.13;100740.66;5022931;28;20502;-57
2022/04/22 03:13:35;;;;;;;18.40;12.50;;;;;;;9.16;72.48;100730.72;5013453;28;20030;-57
2022/04/22 03:16:02;;;;;;;20.98;12.38;;;;;;;9.08;72.44;100728.03;5015622;28;20040;-58
2022/04/22 03:18:27;;;;;;;18.52;12.43;;;;;;;9.07;72.43;100731.69;5016253;28;20524;-57
2022/04/22 03:20:53;;;;;;;17.90;12.57;;;;;;;9.06;72.60;100730.00;5021095;28;20073;-57
2022/04/22 03:23:18;;;;;;;19.77;12.90;;;;;;;9.03;72.56;100731.13;5015793;28;20109;-56
2022/04/22 03:25:44;;;;;;;19.55;13.18;;;;;;;9.01;72.65;100722.53;5014194;28;20389;-56
2022/04/22 03:28:09;;;;;;;18.40;12.55;;;;;;;9.03;72.92;100725.84;5019089;28;20042;-57
2022/04/22 03:30:34;;;;;;;19.38;12.80;;;;;;;9.01;72.69;100728.66;5016114;28;20060;-58
2022/04/22 03:33:01;;;;;;;18.13;13.13;;;;;;;8.97;72.75;100732.59;5017729;28;20042;-57
2022/04/22 03:35:27;;;;;;;18.65;13.07;;;;;;;8.94;73.45;100732.88;5010597;28;20041;-58
2022/04/22 03:37:52;;;;;;;19.17;12.63;;;;;;;8.92;73.17;100732.22;5022791;28;20489;-57
2022/04/22 03:40:18;;;;;;;18.35;12.52;;;;;;;8.90;73.43;100731.53;5034078;28;20030;-57
2022/04/22 03:42:43;;;;;;;21.08;13.77;;;;;;;8.88;73.37;100721.09;5010211;28;20408;-56
2022/04/22 03:45:08;;;;;;;19.75;12.90;;;;;;;8.87;73.71;100727.38;5031479;28;20227;-58
2022/04/22 03:47:34;;;;;;;20.80;14.00;;;;;;;8.83;73.72;100731.31;5025083;28;20043;-57
2022/04/22 03:49:59;;;;;;;20.33;13.55;;;;;;;8.82;73.97;100723.53;5024960;28;20048;-57
2022/04/22 03:52:24;;;;;;;19.92;13.95;;;;;;;8.80;74.01;100730.78;5011966;28;20061;-56
2022/04/22 03:54:49;;;;;;;21.00;13.60;;;;;;;8.78;73.97;100719.53;5020387;28;20384;-58
2022/04/22 03:59:59;;;;;;;19.08;13.60;;;;;;;8.77;74.22;100715.25;5015949;28;20392;-57
2022/04/22 04:02:24;;;;;;;20.05;13.80;;;;;;;8.79;74.33;100714.06;5012209;28;20045;-57
2022/04/22 04:04:50;;;;;;;19.90;14.00;;;;;;;8.77;74.17;100710.78;5019708;28;20124;-58
2022/04/22 04:07:16;;;;;;;20.75;13.45;;;;;;;8.69;74.42;100706.25;5015260;28;20029;-58
2022/04/22 04:17:53;;;;;;;21.60;15.20;;;;;;;8.67;74.84;100715.31;5022327;28;20065;-57
2022/04/22 04:23:14;;;;;;;21.63;14.68;;;;;;;8.61;75.06;100712.31;5016324;28;20041;-58
2022/04/22 04:25:40;;;;;;;20.48;14.88;;;;;;;8.61;75.28;100714.09;5006555;28;20045;-58
2022/04/22 04:28:09;;;;;;;22.58;14.30;;;;;;;8.61;75.37;100711.47;5004108;28;20084;-57
2022/04/22 04:30:35;;;;;;;21.70;14.80;;;;;;;8.59;76.00;100703.69;5004280;28;20131;-57
2022/04/22 04:33:00;;;;;;;22.05;15.00;;;;;;;8.51;75.89;100695.66;5006845;28;20489;-56
2022/04/22 04:35:26;;;;;;;21.13;15.20;;;;;;;8.54;75.89;100705.13;5008116;28;20088;-58
2022/04/22 04:37:51;;;;;;;21.35;15.52;;;;;;;8.51;76.01;100705.38;5005776;28;20464;-58
2022/04/22 04:40:16;;;;;;;23.45;15.57;;;;;;;8.54;75.83;100710.41;5006182;28;20045;-58
2022/04/22 04:42:42;;;;;;;22.33;15.60;;;;;;;8.52;76.40;100707.91;5008284;28;20034;-57
2022/04/22 04:45:08;;;;;;;23.33;15.93;;;;;;;8.52;76.44;100715.84;5002726;28;20213;-57
2022/04/22 04:47:43;;;;;;;23.90;15.60;;;;;;;8.47;77.02;100716.28;5005092;28;20030;-57
2022/04/22 04:50:09;;;;;;;24.77;16.05;;;;;;;8.51;76.72;100710.66;5017362;28;20104;-57
2022/04/22 04:52:37;;;;;;;23.15;15.65;;;;;;;8.46;76.77;100709.34;5009257;28;20112;-58
2022/04/22 04:55:06;;;;;;;22.80;15.60;;;;;;;8.46;76.79;100704.03;5008782;28;20033;-58
2022/04/22 04:57:31;;;;;;;23.05;15.75;;;;;;;8.51;77.05;100700.09;5004027;28;20097;-57
2022/04/22 04:59:56;;;;;;;24.70;16.08;;;;;;;8.50;77.13;100704.56;5025776;28;20409;-58
2022/04/22 05:02:22;;;;;;;24.23;16.15;;;;;;;8.55;76.81;100693.56;5004850;28;20046;-57
2022/04/22 05:04:47;;;;;;;23.23;15.73;;;;;;;8.57;76.95;100699.53;5006601;28;20393;-57
2022/04/22 05:07:12;;;;;;;25.60;15.52;;;;;;;8.56;77.01;100703.16;5007424;28;20104;-58
2022/04/22 05:09:38;;;;;;;22.52;16.02;;;;;;;8.56;77.40;100709.28;5008440;28;20099;-54
2022/04/22 05:12:03;;;;;;;24.45;16.23;;;;;;;8.55;77.00;100694.41;5004766;28;20038;-56
2022/04/22 05:14:28;;;;;;;24.15;16.05;;;;;;;8.56;77.58;100703.16;5007027;28;20370;-57
2022/04/22 05:16:55;;;;;;;24.75;15.80;;;;;;;8.50;77.48;100698.44;5000194;28;20124;-58
2022/04/22 05:19:21;;;;;;;24.77;15.70;;;;;;;8.54;77.83;100705.13;5017422;28;20046;-57
2022/04/22 05:21:47;;;;;;;22.17;15.65;;;;;;;8.53;78.02;100704.28;5009036;28;20049;-57
2022/04/22 05:24:13;;;;;;;23.02;15.90;;;;;;;8.59;77.91;100708.16;5015575;28;20034;-57
2022/04/22 05:26:38;;;;;;;24.00;16.08;;;;;;;8.57;78.11;100707.44;5003795;28;20034;-57
2022/04/22 05:29:03;;;;;;;23.88;16.67;;;;;;;8.59;78.08;100700.22;5020560;28;20095;-57
2022/04/22 05:34:13;;;;;;;24.33;16.65;;;;;;;8.62;78.66;100713.13;5010226;28;20143;-57
2022/04/22 05:36:38;;;;;;;26.50;17.50;;;;;;;8.67;78.63;100710.00;5008925;28;20061;-57
2022/04/22 05:39:07;;;;;;;24.15;17.45;;;;;;;8.72;78.69;100713.88;5002361;28;20075;-57
2022/04/22 05:41:32;;;;;;;25.35;16.45;;;;;;;8.73;78.80;100699.66;5000475;28;20598;-58
2022/04/22 05:43:57;;;;;;;26.63;17.27;;;;;;;8.73;78.79;100712.88;4994411;28;20037;-58
2022/04/22 05:46:23;;;;;;;24.73;17.92;;;;;;;8.80;78.95;100709.63;5004868;28;20034;-58
2022/04/22 05:48:48;;;;;;;25.50;17.90;;;;;;;8.83;78.84;100712.81;5006797;28;20449;-57
2022/04/22 05:51:14;;;;;;;26.38;17.92;;;;;;;8.92;78.87;100718.97;5004310;28;20029;-57
2022/04/22 05:53:44;;;;;;;25.45;18.08;;;;;;;8.97;78.63;100715.88;5005329;28;20038;-57
2022/04/22 05:56:10;;;;;;;29.52;18.52;;;;;;;9.01;78.91;100720.72;5007934;28;20033;-57
2022/04/22 05:58:35;;;;;;;28.48;19.27;;;;;;;9.04;79.20;100716.09;5005940;28;20034;-58
2022/04/22 06:01:00;;;;;;;28.27;19.23;;;;;;;9.07;79.25;100721.09;5006422;28;20389;-57
2022/04/22 06:03:26;;;;;;;26.88;19.88;;;;;;;9.13;79.15;100725.75;5003803;28;20091;-57
2022/04/22 06:05:51;;;;;;;29.42;19.02;;;;;;;9.21;78.87;100720.50;5018244;28;20137;-58
2022/04/22 06:11:00;;;;;;;28.10;20.20;;;;;;;9.26;79.24;100726.19;5010923;28;20037;-57
2022/04/22 06:13:26;;;;;;;29.50;20.55;;;;;;;9.33;79.49;100718.44;5005610;28;20029;-58
2022/04/22 06:15:51;;;;;;;26.77;19.25;;;;;;;9.43;78.48;100718.34;5011177;28;20413;-57
2022/04/22 06:18:16;;;;;;;27.05;20.05;;;;;;;9.38;78.75;100717.97;5010502;28;20099;-57
2022/04/22 06:20:42;;;;;;;29.80;20.40;;;;;;;9.42;79.24;100714.00;5012314;28;20049;-57
2022/04/22 06:23:07;;;;;;;28.63;20.55;;;;;;;9.50;78.76;100710.59;5011533;28;20745;-57
2022/04/22 06:25:33;;;;;;;29.25;20.90;;;;;;;9.47;79.32;100716.22;5032740;28;20468;-58
2022/04/22 06:27:58;;;;;;;28.90;21.17;;;;;;;9.57;79.71;100718.75;5010727;28;20708;-57
2022/04/22 06:30:24;;;;;;;27.40;20.98;;;;;;;9.63;78.83;100718.09;5013636;28;20034;-58
2022/04/22 06:32:51;;;;;;;29.55;21.83;;;;;;;9.63;78.50;100699.56;5010061;28;20377;-57
2022/04/22 06:35:18;;;;;;;30.33;20.80;;;;;;;9.74;78.89;100711.69;5012143;28;22096;-57
2022/04/22 06:37:47;;;;;;;28.90;21.58;;;;;;;9.87;78.01;100716.56;5015788;28;20037;-58
2022/04/22 06:45:48;;;;;;;29.15;21.35;;;;;;;9.97;77.87;100722.56;5021223;28;20055;-57
2022/04/22 06:48:16;;;;;;;30.35;21.90;;;;;;;10.06;77.46;100721.56;5005718;28;20030;-57
2022/04/22 06:50:44;;;;;;;29.80;21.88;;;;;;;10.06;77.88;100703.03;5013103;28;20026;-57
2022/04/22 06:53:10;;;;;;;26.27;20.95;;;;;;;10.12;77.36;100706.84;5015730;28;20469;-57
2022/04/22 06:55:36;;;;;;;28.25;21.17;;;;;;;10.17;77.28;100719.63;5020112;28;20117;-57
2022/04/22 06:58:02;;;;;;;29.13;20.88;;;;;;;10.21;77.23;100718.28;5031660;28;20034;-57
2022/04/22 07:00:28;;;;;;;27.65;21.55;;;;;;;10.24;77.13;100715.34;5012478;28;20041;-57
2022/04/22 07:02:54;;;;;;;28.70;21.30;;;;;;;10.29;77.41;100713.03;5036887;28;20060;-56
2022/04/22 07:05:19;;;;;;;28.75;21.23;;;;;;;10.37;77.23;100720.19;5007514;28;20103;-57
2022/04/22 07:07:45;;;;;;;29.17;21.52;;;;;;;10.41;76.63;100713.53;5016921;28;20102;-56
2022/04/22 07:10:11;;;;;;;25.42;19.85;;;;;;;10.55;76.23;100714.75;5030678;28;20034;-57
2022/04/22 07:12:37;;;;;;;28.38;20.75;;;;;;;10.52;75.89;100708.94;5013460;28;20029;-56
2022/04/22 07:15:03;;;;;;;27.85;20.70;;;;;;;10.58;76.06;100709.13;5007906;28;20045;-57
2022/04/22 07:17:33;;;;;;;29.15;21.35;;;;;;;10.65;75.58;100700.50;5021507;28;20022;-57
2022/04/22 07:20:05;;;;;;;26.55;20.08;;;;;;;10.73;75.27;100697.84;5013230;28;20735;-56
2022/04/22 07:22:31;;;;;;;27.88;20.60;;;;;;;10.74;75.10;100700.34;5015080;28;20029;-56
2022/04/22 07:24:57;;;;;;;26.35;20.42;;;;;;;10.82;75.79;100698.69;5007424;28;20416;-57
2022/04/22 07:27:27;;;;;;;29.80;19.63;;;;;;;10.88;74.80;100693.53;5002404;28;20034;-57
2022/04/22 07:29:55;;;;;;;28.17;20.55;;;;;;;10.95;75.41;100698.19;5009987;28;20357;-56
2022/04/22 07:32:21;;;;;;;26.23;19.33;;;;;;;10.96;74.15;100694.53;5007089;28;20101;-57
2022/04/22 07:34:47;;;;;;;26.92;19.58;;;;;;;11.02;74.63;100696.50;5018690;28;20177;-57
2022/04/22 07:37:12;;;;;;;26.65;20.58;;;;;;;11.06;74.21;100689.88;5011246;28;20033;-57
2022/04/22 07:39:39;;;;;;;26.10;20.30;;;;;;;11.11;74.48;100687.53;5022218;28;20535;-56
2022/04/22 07:42:07;;;;;;;27.10;20.45;;;;;;;11.13;74.46;100688.19;5023171;28;20495;-56
2022/04/22 07:47:19;;;;;;;24.40;18.67;;;;;;;11.20;73.09;100690.19;5014226;28;20045;-56
2022/04/22 07:49:44;;;;;;;24.90;18.80;;;;;;;11.26;73.26;100690.31;5014678;28;20033;-56
2022/04/22 07:52:10;;;;;;;25.10;18.85;;;;;;;11.35;72.88;100696.44;5015759;28;20033;-56
2022/04/22 07:54:35;;;;;;;23.38;18.20;;;;;;;11.37;71.61;100689.16;5008096;28;20046;-59
2022/04/22 07:57:01;;;;;;;24.35;18.67;;;;;;;11.52;71.85;100688.41;5029453;28;20037;-59
2022/04/22 07:59:28;;;;;;;23.65;17.63;;;;;;;11.66;71.38;100685.06;5013727;28;20391;-59
2022/04/22 08:01:53;;;;;;;24.75;18.20;;;;;;;11.60;71.69;100688.38;5008884;28;20025;-59
2022/04/22 08:04:18;;;;;;;23.88;17.67;;;;;;;11.63;70.99;100687.22;5014551;28;20022;-59
2022/04/22 08:06:44;;;;;;;23.98;17.35;;;;;;;11.57;71.62;100686.09;5010383;28;20041;-59
2022/04/22 08:09:09;;;;;;;24.20;17.85;;;;;;;11.53;70.61;100685.59;5012683;28;20408;-59
2022/04/22 08:11:35;;;;;;;23.35;17.52;;;;;;;11.56;70.98;100684.44;5005535;28;20065;-59
2022/04/22 08:14:00;;;;;;;21.15;17.40;;;;;;;11.52;71.26;100691.06;4999665;28;20042;-59
2022/04/22 08:16:26;;;;;;;25.15;17.67;;;;;;;11.56;70.82;100676.47;5010805;28;20072;-59
2022/04/22 08:18:51;;;;;;;24.30;17.25;;;;;;;11.55;71.24;100677.47;5005237;28;20025;-59
2022/04/22 08:21:17;;;;;;;24.15;17.40;;;;;;;11.57;70.82;100681.63;5000369;28;20152;-58
2022/04/22 08:23:43;;;;;;;23.52;17.85;;;;;;;11.53;70.99;100674.97;5005657;28;20034;-59
2022/04/22 08:26:09;;;;;;;23.92;17.23;;;;;;;11.55;71.09;100672.16;5007434;28;20334;-59
2022/04/22 08:28:34;;;;;;;23.30;18.15;;;;;;;11.54;70.40;100678.44;5018890;28;20018;-60
2022/04/22 08:31:00;;;;;;;25.42;18.02;;;;;;;11.55;70.57;100680.13;5011230;28;20030;-60
2022/04/22 08:33:26;;;;;;;24.95;18.08;;;;;;;11.53;71.26;100684.75;5030996;28;20038;-60
2022/04/22 08:35:52;;;;;;;23.50;18.45;;;;;;;11.56;70.99;100673.81;5010302;28;20026;-60
2022/04/22 08:38:17;;;;;;;25.42;17.90;;;;;;;11.55;71.09;100666.84;5016095;28;20033;-59
2022/04/22 08:40:43;;;;;;;22.10;17.15;;;;;;;11.62;70.90;100665.16;5009823;28;20038;-60
2022/04/22 08:43:12;;;;;;;24.73;18.10;;;;;;;11.68;70.36;100645.88;5016785;28;20041;-59
2022/04/22 08:45:37;;;;;;;29.25;18.70;;;;;;;11.79;71.92;100647.28;5013090;28;20068;-60
2022/04/22 08:50:51;;;;;;;24.90;17.92;;;;;;;12.06;70.92;100652.31;5011359;28;20069;-60
2022/04/22 08:53:21;;;;;;;22.13;17.05;;;;;;;12.22;68.57;100657.53;5020319;28;20067;-59
2022/04/22 08:55:47;;;;;;;23.38;17.58;;;;;;;12.18;68.80;100661.56;5017965;28;20049;-60
2022/04/22 08:58:13;;;;;;;22.48;17.27;;;;;;;12.28;68.72;100665.81;5007212;28;20448;-60
2022/04/22 09:00:41;;;;;;;22.00;16.60;;;;;;;12.29;67.73;100659.50;5011992;28;20102;-60
2022/04/22 09:03:06;;;;;;;22.75;17.50;;;;;;;12.34;68.38;100652.63;5016662;28;20038;-59
2022/04/22 09:05:34;;;;;;;23.25;18.10;;;;;;;12.37;68.16;100659.41;5012994;28;20479;-60
2022/04/22 09:08:00;;;;;;;22.92;17.70;;;;;;;12.43;68.19;100652.59;5011658;28;20095;-60
2022/04/22 09:10:26;;;;;;;23.83;17.95;;;;;;;12.44;69.10;100657.69;5014178;28;20100;-60
2022/04/22 09:12:54;;;;;;;22.17;16.40;;;;;;;12.42;67.33;100651.75;5013019;28;20030;-60
2022/04/22 09:15:31;;;;;;;22.50;16.25;;;;;;;12.41;67.69;100643.94;5012939;28;20034;-59
2022/04/22 09:18:00;;;;;;;21.58;16.00;;;;;;;12.36;67.12;100644.47;5011653;28;20030;-60
2022/04/22 09:20:30;;;;;;;20.45;16.42;;;;;;;12.38;67.01;100650.44;5011152;28;20093;-60
2022/04/22 09:22:57;;;;;;;23.60;16.33;;;;;;;12.44;68.23;100647.06;5020052;28;20088;-59
2022/04/22 09:25:23;;;;;;;20.70;16.15;;;;;;;12.49;67.49;100636.72;5013888;28;20373;-59
2022/04/22 09:27:49;;;;;;;20.45;15.90;;;;;;;12.65;67.75;100629.63;5017187;28;20068;-59
2022/04/22 09:30:14;;;;;;;22.25;15.18;;;;;;;12.75;66.12;100634.69;5012231;28;20034;-60
2022/04/22 09:32:40;;;;;;;18.52;14.48;;;;;;;12.84;65.38;100627.44;5009447;28;20029;-60
2022/04/22 09:35:17;;;;;;;17.67;13.32;;;;;;;12.79;64.16;100622.66;5010366;28;20030;-60
2022/04/22 09:43:42;;;;;;;19.00;14.10;;;;;;;12.74;64.75;100612.56;5011844;28;20108;-61
2022/04/22 09:46:19;;;;;;;17.58;13.60;;;;;;;12.71;64.66;100602.28;5023929;28;20088;-60
2022/04/22 09:48:45;;;;;;;18.50;14.15;;;;;;;12.82;63.55;100608.19;4996930;28;20366;-60
2022/04/22 09:51:20;;;;;;;18.85;13.70;;;;;;;12.78;63.37;100594.38;4999967;28;20106;-60
2022/04/22 09:53:47;;;;;;;22.65;13.60;;;;;;;12.92;64.07;100598.06;5005133;28;20720;-60
2022/04/22 09:56:12;;;;;;;18.00;13.55;;;;;;;12.99;63.92;100591.03;5006204;28;20034;-59
2022/04/22 09:58:37;;;;;;;20.38;13.98;;;;;;;13.21;62.48;100588.44;5009391;28;20033;-57
2022/04/22 10:01:04;;;;;;;19.25;13.70;;;;;;;13.48;62.90;100595.97;5005304;28;20038;-58
2022/04/22 10:03:33;;;;;;;17.63;12.43;;;;;;;13.54;60.64;100590.72;5012871;28;20080;-58
2022/04/22 10:05:59;;;;;;;18.40;12.65;;;;;;;13.61;61.00;100581.97;5010807;28;20030;-58
2022/04/22 10:08:28;;;;;;;18.90;13.23;;;;;;;13.54;61.16;100582.72;5013289;28;20080;-58
2022/04/22 10:10:56;;;;;;;16.17;12.57;;;;;;;13.41;60.67;100591.34;5020026;28;20033;-58
2022/04/22 10:13:25;;;;;;;17.15;13.32;;;;;;;13.32;60.92;100590.63;5012275;28;20091;-56
2022/04/22 10:15:51;;;;;;;16.77;13.25;;;;;;;13.29;61.22;100587.50;5021577;28;20040;-58
2022/04/22 10:18:17;;;;;;;18.50;12.98;;;;;;;13.19;61.05;100588.59;5011776;28;20026;-57
2022/04/22 10:20:46;;;;;;;19.73;13.40;;;;;;;13.17;61.55;100582.66;5016738;28;20038;-58
2022/04/22 10:23:12;;;;;;;17.75;13.48;;;;;;;13.22;62.10;100584.75;5017205;28;20028;-58
2022/04/22 10:25:38;;;;;;;19.48;13.15;;;;;;;13.27;60.57;100584.22;5015805;28;20034;-58
2022/04/22 10:28:06;;;;;;;18.25;13.35;;;;;;;13.19;60.11;100582.47;5020621;28;20029;-58
2022/04/22 10:30:32;;;;;;;17.15;13.40;;;;;;;13.18;61.01;100586.16;5015210;28;20079;-58
2022/04/22 10:32:59;;;;;;;19.23;13.73;;;;;;;13.21;61.12;100580.44;5011722;28;20029;-58
2022/04/22 10:35:24;;;;;;;17.77;13.77;;;;;;;13.35;61.41;100575.28;5019192;28;20036;-57
2022/04/22 10:37:52;;;;;;;18.90;13.80;;;;;;;13.39;60.47;100571.25;5016441;28;20037;-58
2022/04/22 10:40:23;;;;;;;18.60;14.15;;;;;;;13.47;60.72;100571.16;5016715;28;20116;-58
2022/04/22 10:42:50;;;;;;;18.30;14.30;;;;;;;13.45;60.58;100575.81;5014559;28;20030;-57
2022/04/22 10:48:21;;;;;;;17.60;13.95;;;;;;;13.42;59.60;100555.72;5014083;28;20546;-58
2022/04/22 10:50:59;;;;;;;17.13;13.48;;;;;;;13.50;59.75;100562.81;5014694;28;20042;-57
2022/04/22 10:53:27;;;;;;;17.92;13.68;;;;;;;13.44;58.18;100563.50;5013841;28;20025;-58
2022/04/22 10:55:53;;;;;;;18.35;13.73;;;;;;;13.44;58.68;100558.19;5010348;28;20035;-57
2022/04/22 10:58:20;;;;;;;21.60;13.60;;;;;;;13.50;58.87;100562.81;5005455;28;20085;-58
2022/04/22 11:00:50;;;;;;;18.27;13.30;;;;;;;13.51;59.13;100561.78;5017040;28;20060;-58
2022/04/22 11:03:20;;;;;;;18.70;13.80;;;;;;;13.51;59.13;100558.31;5019786;28;20044;-57
2022/04/22 11:05:59;;;;;;;20.88;13.55;;;;;;;13.55;59.11;100557.72;5008087;28;20120;-57
2022/04/22 11:08:32;;;;;;;19.35;14.07;;;;;;;13.63;59.20;100555.97;5006652;28;20029;-58
2022/04/22 11:11:05;;;;;;;18.77;13.88;;;;;;;13.69;58.90;100552.53;5007838;28;20043;-58
2022/04/22 11:13:31;;;;;;;18.92;14.13;;;;;;;13.68;58.29;100556.22;5005344;28;20126;-57
2022/04/22 11:16:11;;;;;;;18.05;13.90;;;;;;;13.68;57.82;100548.22;5005141;28;20626;-58
2022/04/22 11:18:41;;;;;;;17.27;13.02;;;;;;;13.76;58.63;100540.09;5003700;28;20062;-58
2022/04/22 11:21:32;;;;;;;18.48;13.60;;;;;;;13.96;58.23;100544.81;5005246;28;20027;-56
2022/04/22 11:23:58;;;;;;;26.70;14.43;;;;;;;14.01;57.94;100537.06;5002968;28;20053;-59
2022/04/22 11:26:25;;;;;;;19.45;13.38;;;;;;;14.01;56.59;100542.38;5007086;28;20026;-60
2022/04/22 11:28:50;;;;;;;20.40;14.25;;;;;;;13.91;56.46;100541.91;5012383;28;20026;-58
2022/04/22 11:31:18;;;;;;;20.80;13.93;;;;;;;13.79;58.12;100542.41;5012929;28;20711;-57
2022/04/22 11:33:56;;;;;;;19.83;14.32;;;;;;;13.75;57.64;100549.13;5012589;28;20061;-58
2022/04/22 11:36:24;;;;;;;19.67;14.65;;;;;;;13.65;58.17;100551.25;5016823;28;20033;-58
2022/04/22 11:38:54;;;;;;;20.23;15.30;;;;;;;13.61;59.04;100544.69;5019622;28;20022;-58
2022/04/22 11:41:20;;;;;;;19.35;14.75;;;;;;;13.58;59.19;100543.22;5010905;28;20108;-58
2022/04/22 11:43:46;;;;;;;21.65;14.00;;;;;;;13.58;58.48;100546.69;5012195;28;20030;-58
2022/04/22 11:46:13;;;;;;;19.73;14.65;;;;;;;13.59;58.36;100540.34;5007921;28;20076;-57
2022/04/22 11:48:49;;;;;;;22.23;14.23;;;;;;;13.64;57.81;100530.97;5009135;28;20037;-58
2022/04/22 11:51:15;;;;;;;21.10;14.15;;;;;;;13.65;58.16;100535.28;5011510;28;20622;-58
2022/04/22 11:53:48;;;;;;;20.40;14.73;;;;;;;13.76;59.02;100537.44;5007770;28;20031;-58
2022/04/22 11:56:18;;;;;;;21.38;13.77;;;;;;;13.82;57.93;100528.69;5007851;28;20025;-58
2022/04/22 11:58:44;;;;;;;20.73;14.20;;;;;;;13.94;57.61;100530.84;5010807;28;20077;-59
2022/04/22 12:06:41;;;;;;;19.45;14.30;;;;;;;14.19;57.65;100523.25;5010192;28;20109;-58
2022/04/22 12:09:07;;;;;;;22.95;14.80;;;;;;;14.29;57.11;100522.91;5011737;28;20161;-58